Terminal Aerodrome Forecast
Issued by NWS Bismarck, ND

Home | Current Version | Previous Version | Text Only | Print | Product List | Glossary Off
Versions: 1 2 3 4 5 6 7 8 9 10 11 12 13 14 15 16

000
FTUS43 KBIS 240800 AAA
TAFISN
TAF AMD
KISN 240808Z 2408/2506 26011KT P6SM FEW090 FEW130
     FM241400 27016G23KT P6SM SCT080
     FM241700 28017G24KT P6SM SCT045 BKN060
     FM242200 29014G19KT P6SM FEW090
     FM250100 VRB03KT P6SM SCT100=

USA.gov is the U.S. government's official web portal to all federal, state and local government web resources and services.